Weather observations for the past three days for
Drummond Island Airport
Imperial (Metric)
Date Time (edt) Wind (mph) Vis. (mi.) Weather Sky Cond. Temperature (ºF) Relative Humidity Wind Chill (°F) Heat Index (°F) Pressure Precipitation (in)
Air Dwpt 6 hour altimeter (in) sea level (mb) 1 hr 3 hr 6 hr
Max. Min.
02 10:15 Calm 10.00 Partly Cloudy SCT002 SCT044 SCT120 65.8 65.8 100% 29.92 0.0
02 09:55 Calm 5.00 Fog/Mist OVC002 66 66 100% 29.93 0.0
02 09:35 Calm 0.50 Fog OVC002 65.7 65.7 100% 29.93 0.0
02 09:15 W 3 0.50 Fog OVC002 66.2 66.2 100% 29.93 0.0
02 08:55 Calm 4.00 Fog/Mist OVC002 66 66 100% 29.93 0.0
02 08:35 Calm 2.50 Fog/Mist OVC002 65.7 65.7 100% 29.9 0.0
02 08:15 Calm 0.50 Fog OVC002 65.8 65.8 100% 29.9 0.0
02 07:55 Calm 0.50 Fog OVC002 65.5 65.5 65.5 64.4 100% 29.89 0.0
02 07:35 Calm 0.75 Fog/Mist OVC002 65.3 65.3 100% 29.89 0.0
02 07:15 Calm 0.75 Fog/Mist OVC002 65.3 65.3 100% 29.88 0.0
02 06:55 Calm 1.00 Fog/Mist OVC002 65.3 65.3 100% 29.88 0.0
02 06:35 Calm 0.75 Fog/Mist OVC002 65.3 65.3 100% 29.88 0.0
02 06:15 Calm 1.25 Fog/Mist OVC002 65.1 65.1 100% 29.88 0.0
02 05:55 Calm 1.50 Fog/Mist OVC002 65.3 65.3 100% 29.88 0.0
02 05:35 Calm 1.75 Fog/Mist OVC002 64.9 64.9 100% 29.87 0.0
02 05:15 Calm 2.00 Fog/Mist OVC004 64.6 64.6 100% 29.87 0.0
02 04:55 Calm 1.00 Fog/Mist OVC002 64.6 64.6 100% 29.88 0.0
02 04:35 Calm 1.25 Fog/Mist OVC002 64.4 64.4 100% 29.87 0.0
02 04:15 Calm 3.00 Fog/Mist OVC002 64.4 64.4 100% 29.87 0.0
02 03:55 Calm 5.00 Fog/Mist OVC002 64.6 64.6 100% 29.88 0.0
02 03:35 N 3 10.00 Overcast OVC006 65.3 65.3 100% 29.87 0.0
02 03:15 Calm 7.00 Overcast OVC006 64.8 64.8 100% 29.87 0.0
02 02:55 Calm 7.00 Overcast SCT002 OVC008 64.6 64.6 100% 29.86 0.0
02 02:35 Calm 7.00 Overcast BKN002 BKN006 OVC011 64.4 64.4 100% 29.86 0.0
02 02:15 Calm 7.00 Light Rain BKN002 OVC014 64.6 64.6 100% 29.88 0.0
02 01:55 Calm 7.00 Overcast OVC002 64.6 64.6 66.4 63.9 100% 29.88 0.0
02 01:35 Calm 3.00 Fog/Mist OVC002 64 64 100% 29.87 0.0
02 01:15 Calm 1.75 Fog/Mist OVC002 64.2 64.2 100% 29.87 0.0
02 00:55 SE 5 2.00 Fog/Mist OVC002 64.4 64.4 100% 29.88 0.0
02 00:35 S 7 2.50 Fog/Mist OVC002 64.4 64.4 100% 29.88 0.0
02 00:15 S 7 5.00 Fog/Mist OVC002 65.1 65.1 100% 29.88 0.0
01 23:55 S 7 7.00 Mostly Cloudy BKN002 65.3 65.3 100% 29.89 0.0
01 23:35 S 5 10.00 Partly Cloudy SCT002 SCT035 65.5 65.5 100% 29.88 0.0
01 23:15 S 7 10.00 Partly Cloudy SCT037 SCT048 65.3 65.3 100% 29.89 0.0
01 22:55 S 6 10.00 Partly Cloudy SCT042 SCT048 64.6 64.6 100% 29.89 0.0
01 22:35 Calm 10.00 Partly Cloudy SCT001 SCT006 SCT042 64.4 64.4 100% 29.89 0.0
01 22:15 Calm 10.00 Partly Cloudy SCT001 SCT006 64.6 64.6 100% 29.89 0.0
01 21:55 SE 5 10.00 Partly Cloudy SCT001 64.4 64.4 100% 29.9 0.0
01 21:35 SE 3 7.00 Overcast OVC001 63.9 63.9 100% 29.9 0.0
01 21:15 SE 3 5.00 Fog/Mist OVC001 64.4 64.4 100% 29.9 0.0
01 20:55 S 3 3.00 Fog/Mist OVC001 64.4 64.4 100% 29.9 0.0
01 20:35 SE 5 1.75 Fog/Mist OVC001 64.8 64.4 99% 29.9 0.0
01 20:15 SE 5 7.00 Mostly Cloudy BKN003 65.7 64.8 97% 29.9 0.0
01 19:55 SE 7 10.00 Partly Cloudy SCT003 67.1 64.8 80.6 67.1 92% 29.9 0.0
01 19:35 S 5 10.00 Fair CLR 69.1 65.3 88% 29.89 0.0
01 19:15 S 6 10.00 Fair CLR 70.9 66 85% 29.9 0.0
01 18:55 S 3 10.00 Fair CLR 72.7 66.2 80% 29.91 0.0
01 18:35 S 5 10.00 Fair CLR 75.9 67.1 74% 77 29.91 0.0
01 18:15 S 5 10.00 Fair CLR 79.9 68.7 69% 83 29.9 0.0
01 17:55 S 3 10.00 Fair CLR 80.6 68.9 68% 84 29.9 0.0
01 17:35 Calm 10.00 Fair CLR 80.1 68 67% 83 29.9 0.0
01 17:15 Calm 10.00 Partly Cloudy SCT120 80.1 68.4 68% 83 29.9 0.0
01 16:55 Calm 10.00 Fair CLR 79.2 67.8 68% 82 29.91 0.0
01 16:35 S 3 10.00 Fair CLR 79 68 69% 81 29.91 0.0
01 16:15 Calm 10.00 Fair CLR 78.6 67.8 70% 81 29.91 0.0
01 15:55 S 5 10.00 Fair CLR 78.1 67.8 71% 80 29.92 0.0
01 15:35 S 6 10.00 Fair CLR 77.7 67.6 71% 80 29.93 0.0
01 15:15 SW 3 10.00 Fair CLR 75.7 67.1 75% 77 29.94 0.0
01 14:55 Calm 10.00 Partly Cloudy SCT007 74.1 67.1 79% 29.94 0.0
01 14:35 Calm 10.00 Overcast OVC007 72.7 67.5 84% 29.95 0.0
01 14:15 Calm 10.00 Overcast OVC005 70.5 66.7 88% 29.95 0.0
01 13:55 S 3 10.00 Overcast OVC005 68.9 67.1 70.9 65.3 94% 29.96 0.0
01 13:35 S 6 5.00 Fog/Mist OVC005 68.9 67.5 95% 29.95 0.0
01 13:15 SW 3 4.00 Fog/Mist OVC005 68.4 66.9 95% 29.95 0.0
01 12:55 S 3 7.00 Overcast OVC005 68.9 67.6 96% 29.95 0.0
01 12:35 S 5 10.00 Overcast OVC005 68.9 67.3 95% 29.95 0.0
01 12:15 SE 3 10.00 Overcast OVC005 69.1 67.5 95% 29.94 0.0
01 11:55 S 6 10.00 Overcast OVC005 68.4 67.5 97% 29.94 0.0
01 11:35 S 5 10.00 Overcast OVC007 69.4 67.6 94% 29.94 0.0
01 11:15 Calm 10.00 Overcast OVC007 70.9 68.9 94% 29.94 0.0
01 10:55 Calm 10.00 Overcast OVC007 70 69.8 99% 29.95 0.0
01 10:35 Calm 10.00 Overcast SCT004 OVC009 69.8 69.8 100% 29.95 0.0
01 10:15 Calm 7.00 Overcast BKN002 OVC009 68.9 68.9 100% 29.94 0.0
01 09:55 NE 3 5.00 Fog/Mist OVC002 68 68 100% 29.94 0.0
01 09:35 Calm 4.00 Fog/Mist OVC002 68.4 68.4 100% 29.94 0.0
01 09:15 Calm 4.00 Fog/Mist OVC002 67.6 67.6 100% 29.94 0.0
01 08:55 Calm 1.25 Fog/Mist OVC004 67.3 67.3 100% 29.94 0.0
01 08:35 Calm 0.50 Fog OVC002 66.6 66.6 100% 29.93 0.0
01 08:15 Calm 0.25 Fog OVC002 65.7 65.7 100% 29.93 0.0
01 07:55 Calm 0.50 Fog OVC002 65.3 65.3 66.2 64.8 100% 29.93 0.0
01 07:35 Calm 0.50 Fog OVC002 65.1 65.1 100% 29.93 0.0
01 07:15 Calm 0.25 Fog OVC002 64.9 64.9 100% 29.93 0.0
01 06:55 Calm 0.25 Fog OVC002 64.9 64.9 100% 29.92 0.0
01 06:35 Calm 0.25 Fog OVC002 64.9 64.9 100% 29.92 0.0
01 06:15 Calm 0.50 Fog OVC002 64.9 64.9 100% 29.91 0.0
01 05:55 Calm 1.00 Fog/Mist OVC002 65.3 65.3 100% 29.91 0.0
01 05:35 Calm 0.75 Fog/Mist OVC002 64.9 64.9 100% 29.91 0.0
01 05:15 Calm 1.00 Fog/Mist OVC002 65.1 65.1 100% 29.91 0.0
01 04:55 Calm 0.75 Fog/Mist OVC002 65.3 65.3 100% 29.91 0.0
01 04:35 Calm 0.50 Fog OVC002 65.3 65.3 100% 29.9 0.0
01 04:15 Calm 0.50 Fog OVC002 65.8 65.8 100% 29.9 0.0
01 03:55 Calm 0.50 Fog OVC002 65.8 65.8 100% 29.9 0.0
01 03:35 Calm 0.50 Fog OVC002 65.8 65.8 100% 29.9 0.0
01 03:15 Calm 0.50 Fog OVC002 66.2 66.2 100% 29.88 0.0
01 02:55 Calm 0.75 Fog/Mist OVC002 65.7 65.7 100% 29.88 0.0
01 02:35 Calm 1.00 Fog/Mist OVC002 65.8 65.8 100% 29.87 0.0
01 02:15 Calm 1.00 Fog/Mist OVC002 65.7 65.7 100% 29.87 0.0
01 01:55 Calm 3.00 Fog/Mist OVC002 66 66 68 66 100% 29.88 0.0 0.01
01 01:35 Calm 5.00 Fog/Mist OVC002 66 65.8 99% 29.88 0.0
01 01:15 Calm 5.00 Fog/Mist BKN002 OVC005 66.2 66.2 100% 29.89 0.0
01 00:55 Calm 7.00 Overcast OVC005 66.2 66.2 100% 29.89 0.0
01 00:35 Calm 7.00 Overcast OVC005 66.6 66.2 99% 29.89 0.0
01 00:15 Calm 7.00 Overcast OVC005 66.9 66.6 99% 29.89 0.0
31 23:55 Calm 5.00 Fog/Mist OVC005 67.1 66.6 98% 29.89 0.0
31 23:35 Calm 7.00 Overcast BKN003 BKN042 OVC050 67.3 66.7 98% 29.9 0.0
31 23:15 Calm 7.00 Overcast SCT003 OVC050 67.1 66.7 99% 29.89 0.0
31 22:55 Calm 7.00 Overcast BKN043 OVC050 67.1 66.6 98% 29.88 0.0 0.01
31 22:35 Calm 7.00 Overcast SCT006 OVC043 67.3 66.6 98% 29.89 0.0
31 22:15 Calm 7.00 Overcast OVC006 67.3 66.4 97% 29.89 0.0
31 21:55 Calm 7.00 Rain SCT006 BKN027 OVC035 68 66.4 95% 29.9 0.0 0.01
31 21:35 Calm 10.00 Overcast SCT028 SCT035 OVC044 68 66.6 95% 29.9 0.0
31 21:15 Calm 10.00 Overcast SCT006 SCT037 OVC046 68 66.6 95% 29.9 0.0
31 20:55 Calm 10.00 Overcast BKN006 OVC037 67.8 66.6 96% 29.9 0.0
31 20:35 E 3 10.00 Overcast OVC006 68 66.4 95% 29.89 0.0
31 20:15 E 3 10.00 Overcast OVC006 68 66.2 94% 29.9 0.0
31 19:55 E 6 10.00 Overcast OVC006 68 66.4 75 68 95% 29.89 0.0
31 19:35 E 5 10.00 Overcast OVC006 68.2 66.2 93% 29.89 0.0
31 19:15 E 3 10.00 Overcast OVC006 68.4 66.2 93% 29.9 0.0
31 18:55 E 3 10.00 Overcast OVC006 68.7 66.6 93% 29.9 0.0
31 18:35 E 3 10.00 Overcast OVC006 68.9 66.6 92% 29.9 0.0
31 18:15 E 7 10.00 Overcast OVC006 69.8 66.4 89% 29.91 0.0
31 17:55 E 7 10.00 Overcast BKN008 OVC055 70.7 66.4 86% 29.9 0.0
31 17:35 E 7 10.00 Overcast BKN012 OVC055 71.4 66.9 86% 29.9 0.0
31 17:15 NE 6 10.00 Overcast OVC012 71.6 66.7 85% 29.91 0.0
31 16:55 E 6 10.00 Overcast BKN012 OVC080 73.4 67.1 81% 29.9 0.0
31 16:35 SE 3 10.00 Overcast BKN012 OVC090 73.4 67.1 81% 29.9 0.0
31 16:15 S 5 10.00 Overcast SCT012 OVC090 74.3 67.6 80% 29.9 0.0
31 15:55 SE 3 10.00 Overcast SCT012 OVC090 74.8 67.8 79% 29.91 0.0
31 15:35 SE 5 10.00 Overcast BKN010 OVC100 73.9 67.3 80% 29.92 0.0
31 15:15 SE 3 10.00 Overcast OVC008 73.8 66.7 79% 29.93 0.0
31 14:55 SE 8 10.00 Overcast OVC008 73.9 68 82% 29.93 0.0
31 14:35 E 6 10.00 Overcast OVC008 71.4 67.3 87% 29.93 0.0
31 14:15 SE 5 10.00 Overcast BKN006 OVC010 70 66.7 90% 29.94 0.0
31 13:55 E 6 10.00 Overcast OVC004 69.1 66.6 69.1 64.4 92% 29.95 0.0
31 13:35 SE 3 10.00 Overcast OVC004 67.1 65.5 95% 29.95 0.0
31 13:15 SE 5 7.00 Overcast OVC004 66.4 66 99% 29.96 0.0
31 12:55 SE 5 5.00 Fog/Mist OVC002 66 66 100% 29.96 0.0
31 12:35 SE 5 5.00 Fog/Mist OVC002 65.5 65.5 100% 29.96 0.0
31 12:15 SE 5 3.00 Fog/Mist OVC002 65.3 65.3 100% 29.97 0.0
31 11:55 SE 7 1.50 Fog/Mist OVC002 64.6 64.6 100% 29.98 0.0
31 11:35 SE 5 1.25 Fog/Mist OVC002 64.6 64.6 100% 29.98 0.0
31 11:15 SE 6 0.75 Fog/Mist OVC002 64.6 64.6 100% 29.98 0.0
31 10:55 SE 6 1.00 Fog/Mist OVC002 64.6 64.6 100% 29.98 0.0
31 10:35 SE 7 0.75 Fog/Mist OVC002 64.8 64.8 100% 29.98 0.0
31 10:15 SE 6 1.75 Fog/Mist OVC002 64.8 64.8 100% 29.99 0.0
31 09:55 SE 7 2.00 Fog/Mist OVC002 65.3 65.3 100% 29.98 0.0
31 09:35 SE 5 1.25 Fog/Mist OVC002 65.3 65.3 100% 29.98 0.0
31 09:15 SE 6 0.75 Fog/Mist OVC002 65.3 65.3 100% 29.97 0.0
31 08:55 SE 7 0.75 Fog/Mist OVC002 65.3 65.3 100% 29.97 0.0
31 08:35 SE 6 0.75 Fog/Mist OVC002 65.3 65.3 100% 29.97 0.0
31 08:15 SE 6 1.00 Fog/Mist OVC002 64.9 64.9 100% 29.96 0.0
31 07:55 E 5 1.00 Fog/Mist OVC002 64.8 64.8 65.3 64.6 100% 29.95 0.0
31 07:35 E 6 1.00 Fog/Mist OVC002 64.8 64.8 100% 29.96 0.0
31 07:15 SE 7 1.00 Fog/Mist OVC002 64.9 64.9 100% 29.97 0.0
31 06:55 E 5 1.00 Fog/Mist OVC002 64.8 64.8 100% 29.98 0.0
31 06:35 SE 6 1.00 Fog/Mist OVC002 64.8 64.8 100% 29.99 0.0
31 06:15 SE 6 1.00 Fog/Mist OVC002 64.8 64.8 100% 29.99 0.0
31 05:55 Calm 1.25 Fog/Mist OVC002 64.6 64.6 100% 30 0.0
31 05:35 E 3 1.50 Fog/Mist OVC002 64.6 64.6 100% 30 0.0
31 05:15 SE 5 4.00 Fog/Mist OVC004 64.8 64.4 99% 30 0.0
31 04:55 E 3 10.00 Overcast OVC004 64.8 64.4 99% 30.01 0.0
31 04:35 SE 5 7.00 Overcast OVC004 64.9 64.4 98% 30 0.0
31 04:15 E 5 7.00 Overcast OVC004 65.3 64.4 97% 30 0.0
31 03:55 Calm 7.00 Overcast OVC004 65.3 64.4 97% 30 0.0
31 03:35 E 3 7.00 Overcast OVC004 65.3 64.6 98% 30 0.0
31 03:15 E 3 7.00 Overcast OVC004 65.3 64.6 98% 30 0.0
31 02:55 Calm 7.00 Overcast OVC004 65.3 64.4 97% 30 0.0
31 02:35 E 3 7.00 Overcast OVC004 65.3 64.4 97% 30.01 0.0
31 02:15 Calm 10.00 Overcast OVC004 65.3 64.4 97% 30.02 0.0
31 01:55 E 3 10.00 Overcast OVC004 65.3 64.4 66.4 65.3 97% 30.02 0.0
31 01:35 E 5 10.00 Overcast OVC004 65.3 64.6 98% 30.02 0.0
31 01:15 E 3 7.00 Overcast OVC004 65.3 64.4 97% 30.02 0.0
31 00:55 E 3 7.00 Overcast OVC004 65.3 64.6 98% 30.02 0.0
31 00:35 E 5 10.00 Overcast OVC004 65.3 64.4 97% 30.02 0.0
31 00:15 E 5 10.00 Overcast OVC006 65.5 64.2 96% 30.02 0.0
30 23:55 SE 6 10.00 Overcast OVC006 65.5 64 95% 30.02 0.0
30 23:35 Calm 10.00 Overcast SCT006 OVC025 65.7 64 95% 30.02 0.0
30 23:15 SE 6 10.00 Overcast OVC023 65.7 63.9 94% 30.02 0.0
30 22:55 SE 3 10.00 Overcast OVC023 65.7 63.9 94% 30.02 0.0
30 22:35 E 5 10.00 Overcast OVC021 65.8 64 94% 30 0.0
30 22:15 Calm 10.00 Overcast OVC021 65.8 64.4 95% 30.02 0.0
30 21:55 Calm 10.00 Overcast OVC021 65.5 64 95% 30.02 0.0
30 21:35 NE 3 10.00 Overcast SCT006 SCT015 OVC021 65.7 64.4 96% 30.02 0.0
30 21:15 Calm 10.00 Overcast SCT006 SCT015 OVC021 65.7 64 95% 30.01 0.0
30 20:55 Calm 10.00 Overcast BKN006 OVC021 65.5 63.7 94% 30.01 0.0
30 20:35 Calm 10.00 Overcast OVC006 65.5 63.5 93% 30 0.0
30 19:52 E 3 10.00 Overcast BKN010 OVC013 66.6 63.5 90% 30 0.0
Date Time (edt) Wind (mph) Vis. (mi.) Weather Sky Cond. Air Dwpt Max. Min. Relative Humidity Wind Chill (°F) Heat Index (°F) altimeter (in) sea level (mb) 1 hr 3 hr 6 hr
6 hour
Temperature (ºF) Pressure Precipitation (in)